Time;durP1;ratioP1;P1;durP2;ratioP2;P2;SDS_P1;SDS_P2;PMS_P1;PMS_P2;Temp;Humidity;BMP_temperature;BMP_pressure;BME280_temperature;BME280_humidity;BME280_pressure;Samples;Min_cycle;Max_cycle;Signal;HPM_P1;HPM_P2
2023/02/19 05:01:45;;;;;;;4.68;0.95;;;4.40;99.90;;;;;;5326317;23;21002;-70
2023/02/19 05:04:11;;;;;;;1.45;1.17;;;4.40;99.90;;;;;;4950526;28;20202;-68
2023/02/19 05:06:38;;;;;;;1.75;1.75;;;4.40;99.90;;;;;;4953479;28;20218;-68
2023/02/19 05:09:05;;;;;;;0.52;0.32;;;4.40;99.90;;;;;;4949541;28;20213;-68
2023/02/19 05:11:31;;;;;;;1.75;1.45;;;4.40;99.90;;;;;;4947479;28;20237;-68
2023/02/19 05:13:58;;;;;;;0.80;0.80;;;4.40;99.90;;;;;;4943320;28;20217;-68
2023/02/19 05:16:25;;;;;;;0.98;0.88;;;4.30;99.90;;;;;;4947923;28;20218;-68
2023/02/19 05:18:53;;;;;;;2.13;2.00;;;4.30;99.90;;;;;;4949465;28;20209;-68
2023/02/19 05:21:20;;;;;;;1.20;1.10;;;4.30;99.90;;;;;;4957571;28;20235;-68
2023/02/19 05:23:47;;;;;;;2.58;2.47;;;4.30;99.90;;;;;;4949678;28;20206;-68
2023/02/19 05:26:17;;;;;;;5.68;2.33;;;4.30;99.90;;;;;;4948662;28;20219;-70
2023/02/19 05:28:44;;;;;;;0.50;0.50;;;4.30;99.90;;;;;;4938205;28;20264;-68
2023/02/19 05:31:12;;;;;;;1.20;1.20;;;4.30;99.90;;;;;;4942959;28;20249;-69
2023/02/19 05:33:38;;;;;;;0.20;0.20;;;4.30;99.90;;;;;;4951517;28;20260;-68
2023/02/19 05:36:09;;;;;;;2.05;0.40;;;4.30;99.90;;;;;;4958417;28;20250;-68
2023/02/19 05:38:36;;;;;;;0.75;0.75;;;4.30;99.90;;;;;;4938122;28;20210;-69
2023/02/19 05:41:08;;;;;;;0.80;0.80;;;4.30;99.90;;;;;;4950158;28;20237;-69
2023/02/19 05:43:35;;;;;;;2.60;0.90;;;4.30;99.90;;;;;;4970637;28;20208;-69
2023/02/19 05:46:01;;;;;;;0.17;0.17;;;4.20;99.90;;;;;;4968993;28;20216;-69
2023/02/19 05:48:28;;;;;;;2.20;2.10;;;4.20;99.90;;;;;;4963617;28;20223;-69
2023/02/19 05:51:00;;;;;;;0.90;0.90;;;4.20;99.90;;;;;;4969070;28;20236;-69
2023/02/19 05:53:28;;;;;;;0.70;0.70;;;4.10;99.90;;;;;;4953467;28;20220;-69
2023/02/19 05:55:55;;;;;;;0.55;0.30;;;4.10;99.90;;;;;;4958888;28;20237;-69
2023/02/19 05:58:22;;;;;;;0.50;0.50;;;4.00;99.90;;;;;;4949861;28;20207;-68
2023/02/19 06:00:49;;;;;;;0.50;0.50;;;4.10;99.90;;;;;;4956618;28;20241;-68
2023/02/19 06:03:15;;;;;;;0.65;0.65;;;4.00;99.90;;;;;;4957175;28;20215;-69
2023/02/19 06:05:42;;;;;;;1.90;1.80;;;4.00;99.90;;;;;;4959248;28;20210;-71
2023/02/19 06:08:10;;;;;;;1.08;0.82;;;3.90;99.90;;;;;;4942570;28;20226;-69
2023/02/19 06:10:40;;;;;;;4.03;0.77;;;3.90;99.90;;;;;;4952740;28;20230;-69
2023/02/19 06:13:07;;;;;;;0.80;0.80;;;3.90;99.90;;;;;;4959570;28;20261;-69
2023/02/19 06:15:33;;;;;;;0.40;0.40;;;3.90;99.90;;;;;;4957880;28;20225;-69
2023/02/19 06:18:00;;;;;;;0.20;0.20;;;3.80;99.90;;;;;;4946174;28;20201;-69
2023/02/19 06:20:27;;;;;;;6.85;1.35;;;3.80;99.90;;;;;;4961422;28;20235;-69
2023/02/19 06:22:54;;;;;;;1.45;1.25;;;3.80;99.90;;;;;;4946014;28;20571;-69
2023/02/19 06:25:21;;;;;;;1.05;0.30;;;3.70;99.90;;;;;;4956047;28;20292;-69
2023/02/19 06:27:49;;;;;;;0.70;0.70;;;3.70;99.90;;;;;;4951310;28;20218;-70
2023/02/19 06:30:16;;;;;;;0.95;0.40;;;3.70;99.90;;;;;;4956986;28;20213;-69
2023/02/19 06:32:43;;;;;;;0.30;0.30;;;3.70;99.90;;;;;;4953795;28;20220;-70
2023/02/19 06:35:09;;;;;;;0.75;0.75;;;3.60;99.90;;;;;;4958588;28;20228;-70
2023/02/19 06:37:36;;;;;;;0.47;0.47;;;3.60;99.90;;;;;;4948108;28;20217;-70
2023/02/19 06:40:03;;;;;;;0.40;0.40;;;3.60;99.90;;;;;;4967559;28;20673;-70
2023/02/19 06:42:32;;;;;;;1.20;1.20;;;3.60;99.90;;;;;;4947103;28;20313;-69
2023/02/19 06:45:00;;;;;;;1.65;1.55;;;3.50;99.90;;;;;;4949482;28;20206;-70
2023/02/19 06:47:30;;;;;;;5.28;0.93;;;3.50;99.90;;;;;;4956250;28;20217;-69
2023/02/19 06:49:56;;;;;;;0.85;0.50;;;3.50;99.90;;;;;;4958596;28;20578;-70
2023/02/19 06:52:23;;;;;;;1.25;0.85;;;3.50;99.90;;;;;;4949321;28;20237;-70
2023/02/19 06:54:50;;;;;;;0.65;0.65;;;3.50;99.90;;;;;;4947596;29;20236;-70
2023/02/19 06:57:17;;;;;;;19.73;0.73;;;3.50;99.90;;;;;;4963383;28;20218;-70
2023/02/19 06:59:44;;;;;;;1.10;1.10;;;3.50;99.90;;;;;;4952997;28;20289;-69
2023/02/19 07:02:12;;;;;;;1.80;1.42;;;3.50;99.90;;;;;;4944386;28;20247;-70
2023/02/19 07:04:40;;;;;;;0.93;0.93;;;3.50;99.90;;;;;;4949676;28;20205;-70
2023/02/19 07:07:07;;;;;;;1.02;1.02;;;3.50;99.90;;;;;;4950942;28;20213;-69
2023/02/19 07:09:34;;;;;;;1.83;1.13;;;3.50;99.90;;;;;;4951031;28;20321;-70
2023/02/19 07:12:00;;;;;;;0.40;0.40;;;3.60;99.90;;;;;;4959864;28;20240;-70
2023/02/19 07:14:28;;;;;;;2.05;1.25;;;3.60;99.90;;;;;;4954510;28;20202;-69
2023/02/19 07:16:55;;;;;;;0.82;0.82;;;3.60;99.90;;;;;;4950377;28;20641;-69
2023/02/19 07:19:23;;;;;;;0.75;0.57;;;3.60;99.90;;;;;;4953257;28;20236;-69
2023/02/19 07:21:50;;;;;;;2.65;1.27;;;3.70;99.90;;;;;;4953639;28;20241;-69
2023/02/19 07:24:20;;;;;;;2.22;2.05;;;3.70;99.90;;;;;;4948330;28;20809;-69
2023/02/19 07:26:47;;;;;;;0.68;0.68;;;3.70;99.90;;;;;;4958946;28;20297;-70
2023/02/19 07:29:13;;;;;;;2.65;1.48;;;3.70;99.90;;;;;;4963313;28;20217;-69
2023/02/19 07:31:40;;;;;;;1.17;1.17;;;3.70;99.90;;;;;;4952139;28;20229;-70
2023/02/19 07:34:07;;;;;;;1.42;1.42;;;3.80;99.90;;;;;;4955879;28;20250;-70
2023/02/19 07:36:35;;;;;;;1.95;1.85;;;3.80;99.90;;;;;;4957127;28;20320;-70
2023/02/19 07:39:02;;;;;;;4.72;1.60;;;3.80;99.90;;;;;;4954456;28;20279;-69
2023/02/19 07:41:29;;;;;;;3.00;1.02;;;3.80;99.90;;;;;;4962151;28;20331;-69
2023/02/19 07:43:55;;;;;;;0.40;0.30;;;3.90;99.90;;;;;;4949861;28;20217;-69
2023/02/19 07:46:23;;;;;;;2.70;0.98;;;3.90;99.90;;;;;;4946299;28;20689;-69
2023/02/19 07:48:49;;;;;;;3.03;2.72;;;3.90;99.90;;;;;;4942198;28;20681;-69
2023/02/19 07:51:18;;;;;;;5.75;1.77;;;4.00;99.90;;;;;;4946802;28;20728;-70
2023/02/19 07:53:48;;;;;;;12.80;1.70;;;4.10;99.90;;;;;;4943908;28;20233;-68
2023/02/19 07:56:15;;;;;;;1.70;1.55;;;4.20;99.90;;;;;;4951904;28;20387;-68
2023/02/19 07:58:42;;;;;;;1.13;1.13;;;4.30;99.90;;;;;;4944388;28;20203;-67
2023/02/19 08:01:13;;;;;;;0.65;0.65;;;4.20;99.90;;;;;;4951663;28;20242;-68
2023/02/19 08:03:38;;;;;;;2.55;2.30;;;4.20;99.90;;;;;;4954663;28;20215;-68
2023/02/19 08:06:06;;;;;;;0.57;0.57;;;4.20;99.90;;;;;;4958818;28;20588;-68
2023/02/19 08:08:33;;;;;;;0.40;0.40;;;4.20;99.90;;;;;;4943464;28;20211;-69
2023/02/19 08:13:49;;;;;;;2.50;2.30;;;4.30;99.90;;;;;;4937848;28;20634;-67
2023/02/19 08:16:18;;;;;;;4.60;3.55;;;4.30;99.90;;;;;;4953444;28;20233;-70
2023/02/19 08:18:46;;;;;;;1.77;1.58;;;4.30;99.90;;;;;;4950224;28;20673;-69
2023/02/19 08:21:13;;;;;;;1.10;1.10;;;4.40;99.90;;;;;;4958053;28;20226;-68
2023/02/19 08:23:40;;;;;;;1.50;1.40;;;4.50;99.90;;;;;;4939976;28;20304;-69
2023/02/19 08:26:08;;;;;;;0.85;0.85;;;4.60;99.90;;;;;;4958805;28;20214;-69
2023/02/19 08:28:35;;;;;;;0.98;0.98;;;4.70;99.90;;;;;;4943741;28;20206;-69
2023/02/19 08:31:05;;;;;;;1.85;1.35;;;4.70;99.90;;;;;;4954199;28;20224;-69
2023/02/19 08:33:32;;;;;;;0.85;0.85;;;4.70;99.90;;;;;;4957127;28;20229;-69
2023/02/19 08:36:03;;;;;;;0.80;0.80;;;4.70;99.90;;;;;;4954527;28;20236;-68
2023/02/19 08:38:30;;;;;;;1.95;1.13;;;4.70;99.90;;;;;;4957279;28;20216;-69
2023/02/19 08:40:57;;;;;;;4.65;4.45;;;4.60;99.90;;;;;;4958382;28;20708;-69
2023/02/19 08:43:25;;;;;;;0.93;0.93;;;4.70;99.90;;;;;;4962396;28;20212;-69
2023/02/19 08:45:54;;;;;;;3.25;3.05;;;4.70;99.90;;;;;;4954699;28;20213;-68
2023/02/19 08:48:21;;;;;;;2.65;1.52;;;4.70;99.90;;;;;;4961018;28;20204;-69
2023/02/19 08:50:54;;;;;;;2.47;0.75;;;4.70;99.90;;;;;;4952562;28;20618;-69
2023/02/19 08:53:20;;;;;;;1.27;1.27;;;4.80;99.90;;;;;;4950499;29;20646;-69
2023/02/19 08:55:47;;;;;;;1.20;1.20;;;4.90;99.90;;;;;;4957867;28;20230;-69
2023/02/19 08:58:14;;;;;;;0.82;0.70;;;4.90;99.90;;;;;;4962900;28;20578;-68
2023/02/19 09:00:42;;;;;;;0.60;0.60;;;5.00;99.90;;;;;;4957539;28;20244;-69
2023/02/19 09:03:09;;;;;;;0.50;0.50;;;5.00;99.90;;;;;;4958604;28;20222;-68
2023/02/19 09:05:35;;;;;;;1.85;1.70;;;5.10;99.90;;;;;;4941243;28;20217;-69
2023/02/19 09:08:02;;;;;;;6.68;0.88;;;5.10;99.90;;;;;;4946947;28;20221;-69
2023/02/19 09:10:29;;;;;;;2.13;2.03;;;5.10;99.90;;;;;;4948854;28;20212;-69
2023/02/19 09:12:55;;;;;;;0.68;0.65;;;5.20;99.90;;;;;;4953323;28;20230;-69
2023/02/19 09:15:22;;;;;;;1.35;1.25;;;5.30;99.90;;;;;;4948696;28;20261;-69
2023/02/19 09:17:53;;;;;;;0.40;0.40;;;5.30;99.90;;;;;;4953110;28;20214;-70
2023/02/19 09:20:19;;;;;;;1.08;1.08;;;5.40;99.90;;;;;;4949300;28;20210;-70
2023/02/19 09:22:46;;;;;;;2.83;1.23;;;5.40;99.90;;;;;;4953501;28;20213;-69
2023/02/19 09:25:13;;;;;;;4.15;1.45;;;5.50;99.90;;;;;;4947939;28;20228;-70
2023/02/19 09:27:40;;;;;;;1.35;1.30;;;5.50;99.90;;;;;;4962134;28;20822;-69
2023/02/19 09:30:07;;;;;;;0.52;0.52;;;5.50;99.90;;;;;;4958259;28;20313;-68
2023/02/19 09:32:34;;;;;;;0.75;0.40;;;5.60;99.90;;;;;;4935931;28;20226;-68
2023/02/19 09:35:02;;;;;;;0.73;0.30;;;5.60;99.90;;;;;;4936688;28;20217;-68
2023/02/19 09:37:29;;;;;;;0.40;0.40;;;5.60;99.90;;;;;;4938300;28;20709;-68
2023/02/19 09:39:55;;;;;;;0.30;0.30;;;5.70;99.90;;;;;;4946271;28;20223;-67
2023/02/19 09:42:25;;;;;;;5.40;1.45;;;5.70;99.90;;;;;;4945152;28;20230;-69
2023/02/19 09:44:55;;;;;;;6.25;1.75;;;5.70;99.90;;;;;;4947585;28;20664;-69
2023/02/19 09:47:24;;;;;;;3.10;1.35;;;5.80;99.90;;;;;;4948556;28;20347;-68
2023/02/19 09:49:54;;;;;;;16.45;1.95;;;5.90;99.90;;;;;;4954683;28;20211;-67
2023/02/19 09:52:31;;;;;;;0.88;0.40;;;5.90;99.90;;;;;;4946382;28;20254;-68
2023/02/19 09:55:02;;;;;;;1.85;0.47;;;6.00;99.90;;;;;;4957453;28;20341;-69
2023/02/19 09:57:31;;;;;;;0.50;0.50;;;6.00;99.90;;;;;;4940760;28;20318;-68
2023/02/19 10:00:05;;;;;;;1.02;1.02;;;6.10;99.90;;;;;;4936402;28;20277;-69
2023/02/19 10:02:32;;;;;;;1.85;0.40;;;6.10;99.90;;;;;;4940212;29;20243;-68
2023/02/19 10:05:00;;;;;;;1.15;0.47;;;6.20;99.90;;;;;;4937767;28;20218;-68
2023/02/19 10:07:37;;;;;;;0.68;0.68;;;6.30;99.90;;;;;;4948793;28;20262;-69
2023/02/19 10:10:19;;;;;;;0.50;0.50;;;6.40;99.90;;;;;;4948059;28;20307;-69
2023/02/19 10:12:49;;;;;;;2.65;0.57;;;6.40;99.90;;;;;;4946435;29;20329;-67
2023/02/19 10:15:20;;;;;;;0.40;0.40;;;6.40;99.90;;;;;;4950765;28;20215;-68
2023/02/19 10:17:47;;;;;;;6.72;0.73;;;6.40;99.90;;;;;;4953363;28;20210;-67
2023/02/19 10:20:15;;;;;;;0.70;0.70;;;6.50;99.90;;;;;;4959828;28;20214;-67
2023/02/19 10:22:44;;;;;;;0.20;0.20;;;6.50;99.90;;;;;;4949981;28;20208;-68
2023/02/19 10:25:13;;;;;;;0.68;0.50;;;6.50;99.90;;;;;;4946577;28;20625;-67
2023/02/19 10:27:40;;;;;;;0.55;0.55;;;6.40;99.90;;;;;;4943504;28;20202;-68
2023/02/19 10:30:14;;;;;;;4.03;0.70;;;6.50;99.90;;;;;;4954188;28;20237;-67
2023/02/19 10:32:59;;;;;;;4.38;0.82;;;6.60;99.90;;;;;;4961441;28;20247;-68
2023/02/19 10:35:26;;;;;;;1.20;0.50;;;6.60;99.90;;;;;;4963082;28;20499;-67
2023/02/19 10:37:54;;;;;;;4.97;1.05;;;6.70;99.90;;;;;;4960320;28;20212;-68
2023/02/19 10:40:23;;;;;;;0.40;0.40;;;6.80;99.90;;;;;;4969264;28;20652;-68
2023/02/19 10:42:53;;;;;;;0.75;0.75;;;6.90;99.90;;;;;;4956195;28;20209;-67
2023/02/19 10:45:24;;;;;;;0.40;0.40;;;6.90;99.90;;;;;;4948419;28;20661;-67
2023/02/19 10:47:52;;;;;;;1.63;0.38;;;6.90;99.90;;;;;;4955336;28;20208;-67
2023/02/19 10:50:25;;;;;;;0.88;0.88;;;7.00;99.90;;;;;;4941780;28;22028;-68
2023/02/19 10:52:57;;;;;;;1.85;0.73;;;7.10;99.90;;;;;;4942339;28;20215;-67
2023/02/19 10:55:30;;;;;;;0.20;0.20;;;7.10;99.90;;;;;;4936679;28;20214;-67
2023/02/19 10:57:57;;;;;;;0.73;0.73;;;7.00;99.90;;;;;;4947738;28;20203;-68
2023/02/19 11:00:29;;;;;;;0.80;0.68;;;6.90;99.90;;;;;;4953499;28;20330;-67
2023/02/19 11:03:20;;;;;;;0.45;0.45;;;6.90;99.90;;;;;;4942487;28;20234;-66
2023/02/19 11:05:53;;;;;;;0.65;0.65;;;6.80;99.90;;;;;;4939664;28;20214;-67
2023/02/19 11:08:23;;;;;;;0.30;0.30;;;6.80;99.90;;;;;;4939400;28;20757;-68
2023/02/19 11:10:50;;;;;;;5.82;0.82;;;6.80;99.90;;;;;;4942566;28;20253;-68
2023/02/19 11:13:24;;;;;;;0.30;0.30;;;6.80;99.90;;;;;;4941740;28;20221;-66
2023/02/19 11:15:52;;;;;;;5.28;0.70;;;6.80;99.90;;;;;;4939969;28;20217;-66
2023/02/19 11:18:23;;;;;;;0.57;0.57;;;6.80;99.90;;;;;;4950120;28;20207;-70
2023/02/19 11:20:53;;;;;;;0.32;0.32;;;6.90;99.90;;;;;;4947651;28;20338;-67
2023/02/19 11:23:26;;;;;;;0.95;0.70;;;7.00;99.90;;;;;;4968633;28;20217;-67
2023/02/19 11:25:55;;;;;;;1.65;0.40;;;7.00;99.90;;;;;;4961745;28;20694;-67
2023/02/19 11:28:30;;;;;;;0.50;0.50;;;7.00;99.90;;;;;;4958953;28;20201;-68
2023/02/19 11:31:14;;;;;;;1.15;1.05;;;7.00;99.90;;;;;;4949938;28;20225;-67
2023/02/19 11:33:45;;;;;;;0.73;0.73;;;7.00;99.90;;;;;;4954884;28;20230;-67
2023/02/19 11:36:28;;;;;;;0.57;0.57;;;7.00;99.90;;;;;;4962078;28;20230;-68
2023/02/19 11:38:58;;;;;;;0.60;0.60;;;7.00;99.90;;;;;;4971136;28;20203;-66
2023/02/19 11:41:40;;;;;;;1.10;0.93;;;7.10;99.90;;;;;;4957641;28;20831;-67
2023/02/19 11:44:19;;;;;;;0.52;0.52;;;7.20;99.90;;;;;;4953515;28;20223;-68
2023/02/19 11:46:57;;;;;;;1.10;1.00;;;7.20;99.90;;;;;;4961983;28;20199;-67
2023/02/19 11:49:35;;;;;;;0.88;0.82;;;7.30;99.90;;;;;;4935359;29;20241;-67
2023/02/19 11:52:20;;;;;;;0.60;0.60;;;7.30;99.90;;;;;;4955091;28;20235;-67
2023/02/19 11:54:51;;;;;;;0.70;0.70;;;7.40;99.90;;;;;;4962220;28;20312;-68
2023/02/19 11:57:35;;;;;;;0.60;0.60;;;7.40;99.90;;;;;;4955526;28;20223;-67
2023/02/19 12:00:17;;;;;;;0.82;0.35;;;7.40;99.90;;;;;;4955599;28;20214;-69
2023/02/19 12:02:59;;;;;;;1.23;1.23;;;7.50;99.90;;;;;;4966437;28;20666;-68
2023/02/19 12:05:48;;;;;;;0.47;0.47;;;7.50;99.90;;;;;;4966110;28;20279;-67
2023/02/19 12:08:45;;;;;;;0.40;0.40;;;7.60;99.90;;;;;;4962481;28;20211;-67
2023/02/19 12:11:28;;;;;;;3.70;2.13;;;7.60;99.90;;;;;;4946099;28;20231;-67
2023/02/19 12:14:17;;;;;;;0.38;0.38;;;7.60;99.90;;;;;;4969679;28;20206;-67
2023/02/19 12:16:50;;;;;;;0.20;0.20;;;7.60;99.90;;;;;;4957631;28;20227;-66
2023/02/19 12:19:41;;;;;;;0.20;0.20;;;7.70;99.90;;;;;;4969597;28;20218;-67
2023/02/19 12:22:26;;;;;;;0.35;0.35;;;7.80;99.90;;;;;;4961810;28;20270;-66
2023/02/19 12:25:17;;;;;;;0.50;0.50;;;7.80;99.90;;;;;;4956097;28;20215;-66
2023/02/19 12:28:07;;;;;;;1.75;1.05;;;7.70;99.90;;;;;;4960376;28;20195;-66
2023/02/19 12:31:08;;;;;;;0.52;0.52;;;7.70;99.90;;;;;;4957122;28;20209;-66
2023/02/19 12:34:02;;;;;;;0.30;0.30;;;7.70;99.90;;;;;;4947112;28;20207;-67
2023/02/19 12:36:37;;;;;;;0.95;0.95;;;7.70;99.90;;;;;;4961189;28;20234;-66
2023/02/19 12:39:10;;;;;;;0.85;0.85;;;7.70;99.90;;;;;;4957156;28;20219;-66
2023/02/19 12:41:44;;;;;;;1.58;0.65;;;7.70;99.90;;;;;;4954123;28;20328;-67
2023/02/19 12:44:18;;;;;;;0.50;0.50;;;7.70;99.90;;;;;;4956686;28;20631;-68
2023/02/19 12:46:48;;;;;;;0.60;0.60;;;7.70;99.90;;;;;;4957236;28;20220;-67
2023/02/19 12:49:19;;;;;;;2.60;0.77;;;7.70;99.90;;;;;;4953719;28;20276;-67
2023/02/19 12:51:49;;;;;;;0.77;0.52;;;7.70;99.90;;;;;;4953998;28;20348;-66
2023/02/19 12:54:22;;;;;;;0.28;0.28;;;7.70;99.90;;;;;;4952580;28;20201;-66
2023/02/19 12:56:55;;;;;;;0.82;0.32;;;7.80;99.90;;;;;;4952256;28;20266;-66
2023/02/19 12:59:26;;;;;;;15.73;0.85;;;7.80;99.90;;;;;;4944441;29;20211;-66
2023/02/19 13:01:58;;;;;;;0.80;0.80;;;7.80;99.90;;;;;;4952869;28;20609;-67
2023/02/19 13:04:32;;;;;;;0.30;0.30;;;7.90;99.90;;;;;;4953755;28;20210;-67
2023/02/19 13:07:04;;;;;;;0.50;0.50;;;8.00;99.90;;;;;;4964809;28;20210;-67
2023/02/19 13:09:36;;;;;;;20.10;1.00;;;8.00;99.90;;;;;;4956430;28;20230;-67
2023/02/19 13:12:07;;;;;;;0.98;0.50;;;8.00;99.90;;;;;;4946485;28;20577;-67
2023/02/19 13:14:39;;;;;;;0.70;0.70;;;8.10;99.90;;;;;;4947465;28;20640;-66
2023/02/19 13:17:25;;;;;;;0.20;0.20;;;8.10;99.90;;;;;;4946655;28;20231;-66
2023/02/19 13:19:57;;;;;;;2.03;1.25;;;8.10;99.90;;;;;;4943597;28;20544;-66
2023/02/19 13:25:18;;;;;;;13.90;0.57;;;8.10;99.90;;;;;;4928788;28;20226;-67
2023/02/19 13:28:02;;;;;;;0.50;0.50;;;8.00;99.90;;;;;;4935233;28;20212;-66
2023/02/19 13:30:39;;;;;;;0.20;0.20;;;8.00;99.90;;;;;;4937976;28;20208;-67
2023/02/19 13:33:22;;;;;;;0.20;0.20;;;8.00;99.90;;;;;;4950418;28;20204;-68
2023/02/19 13:36:12;;;;;;;0.30;0.30;;;8.00;99.90;;;;;;4953155;28;20215;-67
2023/02/19 13:38:41;;;;;;;0.75;0.75;;;8.00;99.90;;;;;;4939161;28;20238;-67
2023/02/19 13:41:19;;;;;;;1.45;0.73;;;8.00;99.90;;;;;;4945130;28;20243;-67
2023/02/19 13:43:46;;;;;;;0.22;0.22;;;8.00;99.90;;;;;;4951872;28;20227;-67
2023/02/19 13:46:17;;;;;;;0.20;0.20;;;8.00;99.90;;;;;;4947002;29;20708;-67
2023/02/19 13:48:44;;;;;;;4.65;0.60;;;8.00;99.90;;;;;;4944575;28;20234;-68
2023/02/19 13:51:48;;;;;;;3.60;0.55;;;8.00;99.90;;;;;;4955278;28;20227;-68
2023/02/19 13:54:22;;;;;;;0.68;0.68;;;8.00;99.90;;;;;;4945685;28;20214;-68
2023/02/19 13:56:49;;;;;;;3.13;1.48;;;8.00;99.90;;;;;;4945703;28;20231;-67
2023/02/19 13:59:33;;;;;;;3.92;0.68;;;8.00;99.90;;;;;;4947463;28;20632;-67
2023/02/19 14:02:15;;;;;;;0.93;0.68;;;8.10;99.90;;;;;;4937300;28;20306;-68
2023/02/19 14:04:47;;;;;;;0.68;0.68;;;8.10;99.90;;;;;;4952975;28;20295;-67
2023/02/19 14:07:53;;;;;;;0.30;0.30;;;8.10;99.90;;;;;;4947098;28;20205;-68
2023/02/19 14:11:02;;;;;;;2.50;0.30;;;8.10;99.90;;;;;;4936381;28;20211;-68
2023/02/19 14:14:05;;;;;;;0.20;0.20;;;8.10;99.90;;;;;;4940129;28;20211;-67
2023/02/19 14:16:55;;;;;;;1.27;0.32;;;8.10;99.90;;;;;;4925780;28;20952;-68
2023/02/19 14:19:47;;;;;;;0.30;0.30;;;8.10;99.90;;;;;;4960812;28;20198;-67
2023/02/19 14:22:54;;;;;;;0.30;0.30;;;8.00;99.90;;;;;;4964133;28;20262;-68
2023/02/19 14:25:41;;;;;;;0.30;0.30;;;8.00;99.90;;;;;;4957705;28;20209;-68
2023/02/19 14:28:35;;;;;;;0.40;0.30;;;8.00;99.90;;;;;;4967664;28;20215;-67
2023/02/19 14:31:15;;;;;;;0.60;0.60;;;8.00;99.90;;;;;;4946749;28;20235;-68
2023/02/19 14:33:46;;;;;;;0.30;0.30;;;8.10;99.90;;;;;;4966833;28;20266;-68
2023/02/19 14:36:27;;;;;;;1.83;0.40;;;8.10;99.90;;;;;;4937337;28;20222;-68
2023/02/19 14:38:56;;;;;;;0.50;0.50;;;8.10;99.90;;;;;;4947874;28;20234;-67
2023/02/19 14:41:25;;;;;;;0.20;0.20;;;8.10;99.90;;;;;;4937695;28;20241;-67
2023/02/19 14:43:56;;;;;;;0.40;0.40;;;8.00;99.90;;;;;;4951052;28;20583;-68
2023/02/19 14:46:28;;;;;;;0.73;0.73;;;8.00;99.90;;;;;;4938096;28;20214;-67
2023/02/19 14:48:57;;;;;;;0.77;0.77;;;8.00;99.90;;;;;;4964735;28;20247;-68
2023/02/19 14:51:31;;;;;;;0.82;0.60;;;8.00;99.90;;;;;;4960443;28;20235;-67
2023/02/19 14:54:00;;;;;;;0.43;0.43;;;8.00;99.90;;;;;;4948400;29;20284;-67
2023/02/19 14:56:33;;;;;;;0.30;0.30;;;8.00;99.90;;;;;;4948846;28;20218;-67
2023/02/19 14:59:25;;;;;;;0.20;0.20;;;8.00;99.90;;;;;;4950305;28;20617;-68
2023/02/19 15:01:56;;;;;;;1.20;0.30;;;7.90;99.90;;;;;;4951014;28;20298;-68
2023/02/19 15:04:25;;;;;;;0.70;0.70;;;8.00;99.90;;;;;;4953755;28;20208;-68
2023/02/19 15:06:55;;;;;;;0.20;0.20;;;7.90;99.90;;;;;;4949895;28;20650;-68
2023/02/19 15:09:28;;;;;;;0.50;0.50;;;7.90;99.90;;;;;;4953364;28;20204;-67
2023/02/19 15:11:55;;;;;;;4.22;0.70;;;7.90;99.90;;;;;;4965579;28;20235;-67
2023/02/19 15:14:27;;;;;;;0.20;0.20;;;7.90;99.90;;;;;;4959297;28;20299;-67
2023/02/19 15:16:58;;;;;;;1.23;0.32;;;7.90;99.90;;;;;;4953585;28;20227;-67
2023/02/19 15:19:24;;;;;;;4.97;0.55;;;7.90;99.90;;;;;;4946213;28;20570;-68
2023/02/19 15:21:54;;;;;;;0.82;0.82;;;7.80;99.90;;;;;;4945209;28;20235;-69
2023/02/19 15:24:21;;;;;;;0.30;0.30;;;7.80;99.90;;;;;;4942306;28;20290;-69
2023/02/19 15:26:51;;;;;;;0.30;0.30;;;7.80;99.90;;;;;;4957462;28;20657;-69
2023/02/19 15:29:21;;;;;;;0.40;0.40;;;7.70;99.90;;;;;;4953770;28;20214;-69
2023/02/19 15:31:49;;;;;;;8.55;1.70;;;7.70;99.90;;;;;;4953282;28;20327;-68
2023/02/19 15:34:18;;;;;;;1.85;1.27;;;7.60;99.90;;;;;;4960301;28;20218;-67
2023/02/19 15:36:45;;;;;;;2.88;0.88;;;7.60;99.90;;;;;;4957682;28;20213;-67
2023/02/19 15:39:20;;;;;;;0.95;0.65;;;7.60;99.90;;;;;;4948783;28;20239;-68
2023/02/19 15:41:54;;;;;;;1.85;0.43;;;7.50;99.90;;;;;;4953891;28;20268;-68
2023/02/19 15:44:42;;;;;;;3.60;1.38;;;7.50;99.90;;;;;;4951415;28;20290;-68
2023/02/19 15:47:16;;;;;;;0.80;0.80;;;7.40;99.90;;;;;;4948401;28;20288;-68
2023/02/19 15:49:50;;;;;;;0.77;0.77;;;7.30;99.90;;;;;;4952338;28;20210;-69
2023/02/19 15:52:26;;;;;;;0.63;0.63;;;7.30;99.90;;;;;;4944200;28;20238;-69
2023/02/19 15:54:59;;;;;;;0.60;0.30;;;7.20;99.90;;;;;;4937822;28;20217;-68
2023/02/19 15:57:31;;;;;;;1.00;0.63;;;7.20;99.90;;;;;;4951784;28;20231;-68
2023/02/19 16:00:03;;;;;;;7.22;1.17;;;7.10;99.90;;;;;;4946004;28;20224;-69
2023/02/19 16:02:30;;;;;;;0.68;0.68;;;7.00;99.90;;;;;;4955933;28;20232;-68
2023/02/19 16:04:57;;;;;;;1.95;1.88;;;7.00;99.90;;;;;;4944063;28;20215;-67
2023/02/19 16:07:25;;;;;;;0.55;0.55;;;6.90;99.90;;;;;;4953026;28;20206;-67
2023/02/19 16:10:18;;;;;;;0.63;0.63;;;6.90;99.90;;;;;;4951398;28;20225;-68
2023/02/19 16:12:55;;;;;;;0.63;0.63;;;6.80;99.90;;;;;;4943462;28;20277;-68
2023/02/19 16:15:21;;;;;;;1.05;1.05;;;6.80;99.90;;;;;;4947232;28;20233;-68
2023/02/19 16:17:48;;;;;;;1.00;1.00;;;6.70;99.90;;;;;;4947000;28;20339;-68
2023/02/19 16:20:22;;;;;;;0.40;0.40;;;6.70;99.90;;;;;;4945298;28;20293;-68
2023/02/19 16:22:50;;;;;;;1.48;1.38;;;6.60;99.90;;;;;;4946851;28;20215;-69
2023/02/19 16:25:26;;;;;;;0.90;0.70;;;6.60;99.90;;;;;;4942486;28;20542;-69
2023/02/19 16:27:53;;;;;;;1.05;1.05;;;6.60;99.90;;;;;;4957819;28;20202;-68
2023/02/19 16:30:28;;;;;;;0.50;0.50;;;6.50;99.90;;;;;;4941638;28;20219;-69
2023/02/19 16:33:20;;;;;;;0.40;0.40;;;6.40;99.90;;;;;;4943001;28;20217;-68
2023/02/19 16:35:48;;;;;;;0.30;0.30;;;6.40;99.90;;;;;;4944466;29;20212;-68
2023/02/19 16:38:16;;;;;;;1.23;1.08;;;6.30;99.90;;;;;;4947292;28;20679;-67
2023/02/19 16:41:06;;;;;;;1.00;0.65;;;6.30;99.90;;;;;;4958181;28;20634;-68
2023/02/19 16:43:39;;;;;;;1.40;1.40;;;6.20;99.90;;;;;;4937727;28;20205;-69
2023/02/19 16:46:09;;;;;;;1.48;1.48;;;6.20;99.90;;;;;;4939227;28;20202;-67
2023/02/19 16:48:36;;;;;;;0.47;0.47;;;6.20;99.90;;;;;;4956593;28;20202;-67
2023/02/19 16:51:05;;;;;;;0.60;0.60;;;6.10;99.90;;;;;;4946690;28;20594;-67
2023/02/19 16:53:32;;;;;;;0.85;0.85;;;6.10;99.90;;;;;;4955061;28;20293;-67
2023/02/19 16:55:59;;;;;;;1.95;1.85;;;6.00;99.90;;;;;;4944259;28;20649;-69
2023/02/19 16:58:27;;;;;;;2.80;0.77;;;6.00;99.90;;;;;;4947383;28;20532;-68
2023/02/19 17:00:54;;;;;;;1.63;0.60;;;6.00;99.90;;;;;;4940702;28;20268;-67
2023/02/19 17:03:24;;;;;;;0.75;0.75;;;5.90;99.90;;;;;;4948806;28;20251;-67
2023/02/19 17:05:51;;;;;;;9.75;0.77;;;5.90;99.90;;;;;;4946464;28;20222;-66
2023/02/19 17:08:31;;;;;;;1.02;0.50;;;5.80;99.90;;;;;;4951929;28;20234;-68
2023/02/19 17:10:58;;;;;;;0.57;0.57;;;5.80;99.90;;;;;;4947299;28;20264;-68
2023/02/19 17:13:24;;;;;;;2.25;0.70;;;5.80;99.90;;;;;;4940842;28;20249;-70
2023/02/19 17:15:53;;;;;;;1.38;0.73;;;5.80;99.90;;;;;;4946876;28;20219;-67
2023/02/19 17:18:20;;;;;;;0.68;0.68;;;5.70;99.90;;;;;;4957731;28;20325;-68
2023/02/19 17:20:51;;;;;;;4.45;1.23;;;5.70;99.90;;;;;;4949466;28;20238;-67
2023/02/19 17:23:18;;;;;;;1.27;0.95;;;5.60;99.90;;;;;;4938328;28;20721;-68
2023/02/19 17:25:45;;;;;;;0.55;0.55;;;5.60;99.90;;;;;;4950904;28;20236;-66
2023/02/19 17:28:11;;;;;;;1.05;0.90;;;5.50;99.90;;;;;;4956620;28;20543;-67
2023/02/19 17:30:38;;;;;;;0.40;0.40;;;5.50;99.90;;;;;;4966554;28;20241;-68
2023/02/19 17:33:06;;;;;;;1.05;1.02;;;5.50;99.90;;;;;;4952943;28;20213;-69
2023/02/19 17:35:33;;;;;;;1.20;1.20;;;5.40;99.90;;;;;;4936262;28;20210;-69
2023/02/19 17:38:00;;;;;;;0.98;0.98;;;5.30;99.90;;;;;;4942743;28;20223;-67
2023/02/19 17:40:28;;;;;;;4.20;3.78;;;5.30;99.90;;;;;;4977142;23;20216;-66
2023/02/19 17:42:55;;;;;;;4.75;1.73;;;5.30;99.90;;;;;;4930726;29;20203;-68
2023/02/19 17:45:22;;;;;;;1.55;1.35;;;5.20;99.90;;;;;;4931120;29;20211;-67
2023/02/19 17:47:49;;;;;;;0.50;0.50;;;5.20;99.90;;;;;;4932134;29;20265;-68
2023/02/19 17:50:19;;;;;;;1.30;1.05;;;5.10;99.90;;;;;;4930227;29;20207;-68
2023/02/19 17:52:46;;;;;;;0.60;0.60;;;5.10;99.90;;;;;;4926859;29;20217;-67
2023/02/19 17:55:14;;;;;;;1.55;1.35;;;5.10;99.90;;;;;;4929442;29;20766;-71
2023/02/19 17:57:41;;;;;;;1.48;1.33;;;5.10;99.90;;;;;;4928536;29;20676;-68
2023/02/19 18:00:09;;;;;;;0.70;0.70;;;5.10;99.90;;;;;;4931725;29;20213;-69
2023/02/19 18:02:35;;;;;;;0.80;0.80;;;5.10;99.90;;;;;;4929417;29;20211;-68
2023/02/19 18:05:02;;;;;;;1.42;1.33;;;5.00;99.90;;;;;;4927777;29;20211;-69
2023/02/19 18:07:30;;;;;;;1.70;1.10;;;5.10;99.90;;;;;;4926259;29;20658;-69
2023/02/19 18:09:57;;;;;;;0.75;0.75;;;5.10;99.90;;;;;;4930255;29;20207;-69
2023/02/19 18:12:25;;;;;;;1.50;1.05;;;5.10;99.90;;;;;;4927559;29;20230;-68
2023/02/19 18:14:52;;;;;;;0.95;0.93;;;5.10;99.90;;;;;;4931197;29;20230;-68
2023/02/19 18:17:18;;;;;;;1.65;1.55;;;5.20;99.90;;;;;;4933414;29;20373;-68
2023/02/19 18:19:45;;;;;;;2.03;1.92;;;5.20;99.90;;;;;;4929468;29;20241;-69
2023/02/19 18:22:12;;;;;;;1.08;1.08;;;5.20;99.90;;;;;;4932664;29;20233;-67
2023/02/19 18:24:46;;;;;;;1.00;1.00;;;5.20;99.90;;;;;;4930147;29;20613;-67
2023/02/19 18:27:13;;;;;;;1.02;0.93;;;5.20;99.90;;;;;;4935332;29;20581;-68